Terminal Aerodrome Forecast
Issued by NWS Medford, OR

Home | Current Version | Previous Version | Text Only | Print | Product List | Glossary On
Versions: 1 2 3 4 5 6 7 8 9 10 11 12 13 14 15 16 17 18 19 20 21 22 23
486
FTUS46 KMFR 030551 CCA
TAFMFR
TAF COR
KMFR 030551Z 0306/0406 00000KT P6SM SCT020 OVC040
     FM030900 00000KT P6SM BKN020 OVC035
     FM031300 VRB02KT 5SM BR BKN003 OVC009
     FM031800 VRB02KT P6SM BKN009 OVC015
     FM032000 36002KT P6SM BKN040=

USA.gov is the U.S. government's official web portal to all federal, state and local government web resources and services.